釜山 の空港の天気 - METARとTAF

金海国際空港 ( RKPK / PUS ) - 韓国 釜山広域市
飛行場実況気象(Metar)
観測時間02/06 05:00 KST (02/05 20:00 UTC)
風向・風速北北東 3m/s
視程10km以上
天気現象
なし
気温-3℃
湿度59%
気圧1024hPa
METARRKPK 052000Z 03006KT CAVOK M03/M10 Q1024
過去の天気等 Google飛行場航空写真 Wunderground天気予報

過去48時間のMETAR

飛行場予報(TAF)
発表時間: 2/06 02:00 KST (2/05 17:00 UTC)
予報対象時間: 6日3時 KST ~ 7日9時 KST
風向・風速北北西 3m/s
視程10km以上
全天の4割程度の雲 雲底高度 910m
全天の4割程度の雲 雲底高度 6100m
6日11時 KST ~ 6日12時 KST に徐々に
風向・風速南 4m/s
6日18時 KST ~ 6日19時 KST に徐々に
風向・風速北北西 5m/s
全天の4割程度の雲 雲底高度 910m
全天の8割程度の雲 雲底高度 3050m
TAF RKPK 051700Z 0518/0624 33006KT 9999 SCT030 SCT200 TNM02/0521Z TX13/0606Z
BECMG 0602/0603 18008KT
BECMG 0609/0610 33009KT SCT030 BKN100